createdAt,value
2022-12-16T00:00:08.761Z,100.00
2022-12-16T00:02:35.963Z,100.00
2022-12-16T00:05:03.987Z,100.00
2022-12-16T00:07:30.682Z,100.00
2022-12-16T00:09:57.387Z,100.00
2022-12-16T00:12:24.134Z,100.00
2022-12-16T00:14:51.432Z,100.00
2022-12-16T00:17:18.633Z,100.00
2022-12-16T00:19:45.354Z,100.00
2022-12-16T00:22:12.069Z,100.00
2022-12-16T00:24:38.840Z,100.00
2022-12-16T00:27:05.681Z,100.00
2022-12-16T00:29:32.565Z,100.00
2022-12-16T00:31:59.390Z,100.00
2022-12-16T00:34:26.249Z,100.00
2022-12-16T00:36:53.024Z,100.00
2022-12-16T00:39:19.725Z,100.00
2022-12-16T00:41:47.664Z,100.00
2022-12-16T00:44:14.456Z,100.00
2022-12-16T00:46:41.223Z,100.00
2022-12-16T00:49:07.922Z,100.00
2022-12-16T00:51:34.873Z,100.00
2022-12-16T00:54:01.673Z,100.00
2022-12-16T00:56:28.635Z,100.00
2022-12-16T00:58:56.016Z,100.00
2022-12-16T01:01:22.925Z,100.00
2022-12-16T01:03:49.853Z,100.00
2022-12-16T01:06:18.232Z,100.00
2022-12-16T01:08:48.783Z,100.00
2022-12-16T01:11:17.907Z,100.00
2022-12-16T01:13:46.182Z,100.00
2022-12-16T01:16:12.867Z,100.00
2022-12-16T01:18:39.831Z,100.00
2022-12-16T01:21:08.496Z,100.00
2022-12-16T01:23:35.931Z,100.00
2022-12-16T01:26:03.029Z,100.00
2022-12-16T01:28:30.417Z,100.00
2022-12-16T01:31:01.658Z,100.00
2022-12-16T01:33:30.915Z,100.00
2022-12-16T01:36:01.335Z,100.00
2022-12-16T01:38:28.339Z,100.00
2022-12-16T01:40:55.356Z,100.00
2022-12-16T01:43:29.255Z,100.00
2022-12-16T01:46:23.678Z,100.00
2022-12-16T01:49:01.154Z,100.00
2022-12-16T01:51:34.274Z,100.00
2022-12-16T01:54:10.040Z,100.00
2022-12-16T01:56:41.894Z,100.00
2022-12-16T01:59:10.256Z,100.00
2022-12-16T02:01:37.435Z,100.00
2022-12-16T02:04:04.841Z,100.00
2022-12-16T02:06:31.938Z,100.00
2022-12-16T02:09:00.858Z,100.00
2022-12-16T02:12:13.851Z,100.00
2022-12-16T02:15:00.012Z,100.00
2022-12-16T02:17:46.994Z,100.00
2022-12-16T02:20:37.216Z,100.00
2022-12-16T02:23:23.866Z,100.00
2022-12-16T02:26:40.667Z,100.00
2022-12-16T02:29:18.759Z,100.00
2022-12-16T02:32:03.950Z,100.00
2022-12-16T02:34:39.751Z,100.00
2022-12-16T02:38:01.026Z,100.00
2022-12-16T02:40:46.544Z,100.00
2022-12-16T02:43:23.901Z,100.00
2022-12-16T02:45:51.016Z,100.00
2022-12-16T02:48:17.747Z,100.00
2022-12-16T02:50:50.690Z,100.00
2022-12-16T02:53:20.549Z,100.00
2022-12-16T02:56:00.957Z,100.00
2022-12-16T02:58:43.032Z,100.00
2022-12-16T03:01:40.561Z,100.00
2022-12-16T03:04:07.592Z,100.00
2022-12-16T03:06:37.208Z,100.00
2022-12-16T03:09:08.616Z,100.00
2022-12-16T03:11:36.672Z,100.00
2022-12-16T03:14:11.207Z,100.00
2022-12-16T03:16:38.893Z,100.00
2022-12-16T03:19:09.457Z,100.00
2022-12-16T03:21:52.737Z,100.00
2022-12-16T03:24:20.212Z,100.00
2022-12-16T03:26:56.007Z,100.00
2022-12-16T03:29:46.640Z,100.00
2022-12-16T03:32:37.774Z,100.00
2022-12-16T03:35:22.033Z,100.00
2022-12-16T03:37:53.034Z,100.00
2022-12-16T03:40:21.552Z,100.00
2022-12-16T03:42:49.335Z,100.00
2022-12-16T03:45:24.265Z,100.00
2022-12-16T03:47:52.354Z,100.00
2022-12-16T03:50:25.520Z,100.00
2022-12-16T03:52:52.256Z,100.00
2022-12-16T03:55:18.925Z,100.00
2022-12-16T03:57:45.589Z,100.00
2022-12-16T04:00:13.008Z,100.00
2022-12-16T04:02:39.853Z,100.00
2022-12-16T04:05:06.938Z,100.00
2022-12-16T04:07:33.942Z,100.00
2022-12-16T04:10:00.801Z,100.00
2022-12-16T04:12:46.211Z,100.00
2022-12-16T04:15:31.575Z,100.00
2022-12-16T04:18:30.655Z,100.00
2022-12-16T04:21:15.941Z,100.00
2022-12-16T04:24:11.134Z,100.00
2022-12-16T04:26:56.476Z,100.00
2022-12-16T04:29:23.537Z,100.00
2022-12-16T04:31:51.924Z,100.00
2022-12-16T04:34:29.030Z,100.00
2022-12-16T04:37:20.458Z,100.00
2022-12-16T04:40:05.829Z,100.00
2022-12-16T04:42:51.904Z,100.00
2022-12-16T04:45:37.532Z,100.00
2022-12-16T04:48:23.022Z,100.00
2022-12-16T04:51:08.276Z,100.00
2022-12-16T04:53:53.676Z,100.00
2022-12-16T04:56:39.032Z,100.00
2022-12-16T04:59:24.907Z,100.00
2022-12-16T05:02:10.229Z,100.00
2022-12-16T05:04:55.703Z,100.00
2022-12-16T05:07:41.051Z,100.00
2022-12-16T05:10:26.871Z,100.00
2022-12-16T05:13:27.354Z,100.00
2022-12-16T05:16:12.882Z,100.00
2022-12-16T05:18:58.224Z,100.00
2022-12-16T05:21:43.900Z,100.00
2022-12-16T05:24:29.232Z,100.00
2022-12-16T05:27:14.689Z,100.00
2022-12-16T05:30:00.115Z,100.00
2022-12-16T05:32:45.534Z,100.00
2022-12-16T05:35:30.923Z,100.00
2022-12-16T05:38:16.398Z,100.00
2022-12-16T05:41:01.895Z,100.00
2022-12-16T05:43:47.267Z,100.00
2022-12-16T05:46:32.841Z,100.00
2022-12-16T05:49:18.454Z,100.00
2022-12-16T05:52:03.888Z,100.00
2022-12-16T05:54:49.438Z,100.00
2022-12-16T05:57:34.851Z,100.00
2022-12-16T06:00:20.303Z,100.00
2022-12-16T06:03:05.657Z,100.00
2022-12-16T06:05:51.091Z,100.00
2022-12-16T06:08:36.543Z,100.00
2022-12-16T06:11:22.009Z,100.00
2022-12-16T06:14:07.623Z,100.00
2022-12-16T06:16:53.060Z,100.00
2022-12-16T06:19:38.612Z,100.00
2022-12-16T06:22:24.315Z,100.00
2022-12-16T06:25:09.700Z,100.00
2022-12-16T06:27:55.794Z,100.00
2022-12-16T06:30:41.192Z,100.00
2022-12-16T06:33:26.676Z,100.00
2022-12-16T06:36:12.320Z,100.00
2022-12-16T06:38:57.689Z,100.00
2022-12-16T06:41:43.118Z,100.00
2022-12-16T06:44:28.370Z,100.00
2022-12-16T06:47:13.916Z,100.00
2022-12-16T06:49:59.291Z,100.00
2022-12-16T06:52:44.561Z,100.00
2022-12-16T06:55:30.055Z,100.00
2022-12-16T06:58:16.975Z,100.00
2022-12-16T07:01:03.128Z,100.00
2022-12-16T07:03:48.559Z,100.00
2022-12-16T07:06:33.896Z,100.00
2022-12-16T07:09:19.383Z,100.00
2022-12-16T07:12:04.668Z,100.00
2022-12-16T07:14:50.048Z,100.00
2022-12-16T07:17:35.662Z,100.00
2022-12-16T07:20:21.115Z,100.00
2022-12-16T07:23:12.151Z,100.00
2022-12-16T07:26:01.448Z,100.00
2022-12-16T07:28:46.887Z,100.00
2022-12-16T07:31:32.606Z,100.00
2022-12-16T07:34:18.106Z,100.00
2022-12-16T07:37:03.400Z,100.00
2022-12-16T07:39:52.922Z,100.00
2022-12-16T07:42:40.547Z,100.00
2022-12-16T07:45:26.516Z,100.00
2022-12-16T07:48:12.044Z,100.00
2022-12-16T07:50:57.621Z,100.00
2022-12-16T07:53:43.446Z,100.00
2022-12-16T07:56:28.759Z,100.00
2022-12-16T07:59:14.701Z,100.00
2022-12-16T08:02:00.162Z,100.00
2022-12-16T08:04:45.712Z,100.00
2022-12-16T08:07:31.157Z,100.00
2022-12-16T08:10:16.350Z,100.00
2022-12-16T08:13:01.935Z,100.00
2022-12-16T08:15:47.246Z,100.00
2022-12-16T08:18:32.925Z,100.00
2022-12-16T08:21:18.401Z,100.00
2022-12-16T08:24:03.904Z,100.00
2022-12-16T08:26:49.277Z,100.00
2022-12-16T08:29:44.249Z,100.00
2022-12-16T08:32:31.311Z,100.00
2022-12-16T08:35:17.176Z,100.00
2022-12-16T08:38:02.744Z,100.00
2022-12-16T08:40:48.181Z,100.00
2022-12-16T08:43:34.630Z,100.00
2022-12-16T08:46:20.589Z,100.00
2022-12-16T08:49:06.346Z,100.00
2022-12-16T08:51:51.963Z,100.00
2022-12-16T08:54:37.348Z,100.00
2022-12-16T08:57:22.806Z,100.00
2022-12-16T09:00:08.278Z,100.00
2022-12-16T09:02:54.677Z,100.00
2022-12-16T09:05:41.617Z,100.00
2022-12-16T09:08:28.038Z,100.00
2022-12-16T09:11:13.320Z,100.00
2022-12-16T09:13:58.760Z,100.00
2022-12-16T09:16:44.212Z,100.00
2022-12-16T09:19:29.770Z,100.00
2022-12-16T09:22:15.190Z,100.00
2022-12-16T09:25:00.561Z,100.00
2022-12-16T09:27:45.967Z,100.00
2022-12-16T09:30:31.449Z,100.00
2022-12-16T09:33:17.090Z,100.00
2022-12-16T09:36:02.632Z,100.00
2022-12-16T09:38:48.135Z,100.00
2022-12-16T09:41:44.605Z,100.00
2022-12-16T09:44:42.408Z,100.00
2022-12-16T09:47:46.262Z,100.00
2022-12-16T09:50:44.659Z,100.00
2022-12-16T09:53:37.305Z,100.00
2022-12-16T09:56:32.212Z,100.00
2022-12-16T09:59:20.710Z,100.00
2022-12-16T10:02:06.318Z,100.00
2022-12-16T10:04:51.685Z,98.79
2022-12-16T10:07:40.690Z,100.00
2022-12-16T10:10:47.381Z,100.00
2022-12-16T10:13:40.438Z,99.74
2022-12-16T10:16:50.911Z,98.81
2022-12-16T10:19:46.187Z,97.42
2022-12-16T10:22:43.090Z,96.50
2022-12-16T10:25:40.630Z,97.41
2022-12-16T10:29:03.955Z,96.87
2022-12-16T10:31:50.348Z,96.55
2022-12-16T10:34:43.327Z,92.86
2022-12-16T10:37:58.437Z,92.49
2022-12-16T10:40:48.920Z,92.51
2022-12-16T10:43:47.360Z,91.20
2022-12-16T10:46:39.371Z,92.22
2022-12-16T10:49:32.253Z,88.15
2022-12-16T10:52:17.825Z,87.92
2022-12-16T10:55:13.185Z,86.30
2022-12-16T10:58:47.254Z,85.35
2022-12-16T11:01:42.010Z,86.19
2022-12-16T11:04:50.031Z,84.24
2022-12-16T11:07:45.718Z,83.70
2022-12-16T11:10:45.422Z,86.30
2022-12-16T11:13:43.606Z,88.39
2022-12-16T11:16:32.935Z,89.63
2022-12-16T11:19:18.927Z,90.99
2022-12-16T11:22:04.916Z,89.42
2022-12-16T11:24:50.886Z,88.18
2022-12-16T11:27:39.641Z,89.14
2022-12-16T11:30:41.919Z,89.52
2022-12-16T11:33:41.826Z,89.50
2022-12-16T11:36:40.475Z,87.33
2022-12-16T11:39:31.881Z,84.91
2022-12-16T11:42:19.107Z,85.56
2022-12-16T11:45:18.585Z,85.30
2022-12-16T11:48:14.083Z,84.75
2022-12-16T11:51:07.081Z,85.23
2022-12-16T11:54:19.588Z,84.60
2022-12-16T11:57:05.728Z,85.79
2022-12-16T12:00:01.300Z,83.22
2022-12-16T12:03:08.972Z,83.14
2022-12-16T12:06:04.054Z,84.21
2022-12-16T12:09:20.870Z,83.32
2022-12-16T12:12:19.619Z,82.62
2022-12-16T12:15:52.271Z,82.45
2022-12-16T12:18:55.583Z,82.90
2022-12-16T12:21:47.846Z,83.47
2022-12-16T12:24:40.906Z,81.98
2022-12-16T12:27:42.920Z,81.88
2022-12-16T12:30:39.593Z,81.82
2022-12-16T12:33:45.703Z,81.99
2022-12-16T12:36:44.678Z,84.38
2022-12-16T12:39:41.625Z,80.86
2022-12-16T12:42:49.751Z,80.80
2022-12-16T12:46:05.848Z,80.22
2022-12-16T12:48:57.907Z,80.42
2022-12-16T12:52:12.829Z,80.34
2022-12-16T12:55:04.248Z,79.58
2022-12-16T12:57:53.067Z,80.19
2022-12-16T13:00:45.578Z,77.54
2022-12-16T13:03:34.711Z,78.11
2022-12-16T13:06:21.903Z,78.15
2022-12-16T13:09:07.302Z,78.38
2022-12-16T13:11:53.222Z,77.55
2022-12-16T13:14:49.565Z,77.52
2022-12-16T13:17:35.735Z,78.17
2022-12-16T13:20:22.696Z,77.46
2022-12-16T13:23:08.002Z,77.66
2022-12-16T13:26:10.843Z,78.85
2022-12-16T13:29:01.554Z,77.64
2022-12-16T13:31:49.145Z,77.96
2022-12-16T13:34:34.701Z,79.06
2022-12-16T13:37:30.995Z,77.99
2022-12-16T13:40:38.199Z,77.92
2022-12-16T13:43:24.549Z,78.73
2022-12-16T13:46:16.386Z,79.57
2022-12-16T13:49:02.053Z,78.64
2022-12-16T13:51:58.847Z,78.90
2022-12-16T13:54:57.424Z,79.31
2022-12-16T13:57:45.185Z,79.25
2022-12-16T14:00:42.976Z,78.76
2022-12-16T14:03:36.901Z,79.60
2022-12-16T14:06:29.268Z,80.25
2022-12-16T14:09:23.093Z,80.42
2022-12-16T14:12:17.942Z,78.83
2022-12-16T14:15:24.661Z,78.78
2022-12-16T14:18:28.938Z,79.83
2022-12-16T14:21:20.482Z,79.18
2022-12-16T14:24:40.357Z,78.72
2022-12-16T14:27:40.475Z,79.77
2022-12-16T14:30:43.722Z,79.41
2022-12-16T14:33:47.579Z,80.65
2022-12-16T14:36:41.755Z,81.02
2022-12-16T14:39:41.836Z,81.04
2022-12-16T14:42:48.308Z,80.95
2022-12-16T14:45:46.756Z,81.25
2022-12-16T14:48:52.475Z,81.50
2022-12-16T14:51:50.679Z,80.81
2022-12-16T14:54:37.156Z,82.21
2022-12-16T14:57:22.927Z,81.04
2022-12-16T15:00:22.571Z,80.31
2022-12-16T15:03:10.119Z,80.52
2022-12-16T15:05:57.683Z,80.79
2022-12-16T15:08:45.293Z,80.36
2022-12-16T15:11:35.030Z,80.53
2022-12-16T15:14:21.489Z,80.99
2022-12-16T15:17:08.485Z,81.11
2022-12-16T15:20:05.067Z,82.69
2022-12-16T15:22:51.105Z,83.03
2022-12-16T15:25:42.823Z,83.60
2022-12-16T15:28:56.262Z,84.66
2022-12-16T15:31:50.284Z,83.86
2022-12-16T15:34:38.623Z,84.34
2022-12-16T15:37:35.139Z,84.07
2022-12-16T15:40:29.643Z,84.46
2022-12-16T15:43:18.028Z,85.08
2022-12-16T15:46:08.044Z,85.97
2022-12-16T15:48:56.494Z,86.30
2022-12-16T15:51:45.163Z,86.09
2022-12-16T15:54:37.492Z,86.57
2022-12-16T15:57:42.614Z,85.42
2022-12-16T16:00:36.786Z,83.81
2022-12-16T16:03:22.523Z,84.90
2022-12-16T16:06:07.927Z,85.43
2022-12-16T16:08:53.529Z,87.04
2022-12-16T16:11:38.904Z,86.87
2022-12-16T16:14:24.188Z,85.91
2022-12-16T16:17:09.985Z,87.02
2022-12-16T16:20:00.122Z,86.50
2022-12-16T16:22:48.384Z,86.58
2022-12-16T16:25:34.005Z,86.10
2022-12-16T16:28:19.425Z,86.43
2022-12-16T16:31:04.979Z,88.05
2022-12-16T16:33:50.550Z,87.71
2022-12-16T16:36:36.367Z,87.59
2022-12-16T16:39:21.885Z,88.23
2022-12-16T16:42:07.352Z,87.99
2022-12-16T16:44:52.659Z,87.72
2022-12-16T16:47:38.125Z,88.43
2022-12-16T16:50:24.961Z,88.25
2022-12-16T16:53:10.384Z,88.77
2022-12-16T16:55:55.739Z,88.77
2022-12-16T16:58:46.633Z,89.84
2022-12-16T17:01:35.224Z,90.53
2022-12-16T17:04:21.517Z,90.32
2022-12-16T17:07:07.065Z,90.14
2022-12-16T17:09:52.570Z,89.54
2022-12-16T17:12:40.173Z,89.16
2022-12-16T17:15:38.092Z,88.53
2022-12-16T17:18:24.515Z,88.48
2022-12-16T17:21:10.461Z,89.33
2022-12-16T17:23:56.418Z,89.26
2022-12-16T17:26:43.026Z,89.75
2022-12-16T17:29:40.500Z,89.60
2022-12-16T17:32:25.986Z,89.56
2022-12-16T17:35:11.392Z,89.75
2022-12-16T17:37:57.504Z,90.61
2022-12-16T17:40:43.175Z,90.21
2022-12-16T17:43:28.733Z,90.38
2022-12-16T17:46:19.182Z,90.40
2022-12-16T17:49:09.229Z,90.28
2022-12-16T17:51:55.053Z,90.05
2022-12-16T17:54:40.495Z,90.32
2022-12-16T17:57:25.879Z,91.03
2022-12-16T18:00:11.245Z,90.41
2022-12-16T18:02:56.841Z,91.46
2022-12-16T18:05:44.671Z,90.99
2022-12-16T18:08:30.384Z,91.08
2022-12-16T18:11:22.449Z,92.20
2022-12-16T18:14:07.812Z,92.05
2022-12-16T18:16:53.164Z,91.77
2022-12-16T18:19:38.702Z,92.80
2022-12-16T18:22:24.144Z,91.91
2022-12-16T18:25:10.019Z,91.84
2022-12-16T18:27:56.097Z,91.91
2022-12-16T18:30:41.471Z,91.01
2022-12-16T18:33:27.091Z,90.93
2022-12-16T18:36:12.720Z,91.48
2022-12-16T18:38:57.996Z,90.93
2022-12-16T18:41:43.379Z,91.55
2022-12-16T18:44:31.834Z,91.71
2022-12-16T18:47:17.706Z,93.15
2022-12-16T18:50:13.897Z,94.20
2022-12-16T18:53:03.550Z,94.44
2022-12-16T18:55:48.944Z,95.71
2022-12-16T18:58:50.727Z,96.81
2022-12-16T19:01:37.211Z,96.96
2022-12-16T19:04:22.720Z,95.62
2022-12-16T19:07:08.045Z,96.57
2022-12-16T19:09:53.316Z,96.19
2022-12-16T19:12:38.928Z,97.81
2022-12-16T19:15:24.989Z,98.96
2022-12-16T19:18:11.580Z,98.40
2022-12-16T19:20:57.001Z,99.52
2022-12-16T19:23:42.706Z,97.72
2022-12-16T19:26:29.016Z,98.85
2022-12-16T19:29:14.395Z,98.85
2022-12-16T19:31:59.885Z,98.19
2022-12-16T19:34:45.384Z,97.94
2022-12-16T19:37:31.001Z,98.32
2022-12-16T19:40:16.560Z,99.03
2022-12-16T19:43:02.010Z,98.92
2022-12-16T19:45:47.667Z,98.75
2022-12-16T19:48:33.300Z,99.61
2022-12-16T19:51:20.203Z,99.39
2022-12-16T19:54:06.787Z,99.82
2022-12-16T19:56:52.578Z,99.50
2022-12-16T19:59:40.779Z,99.86
2022-12-16T20:02:30.212Z,99.43
2022-12-16T20:05:15.742Z,99.51
2022-12-16T20:08:01.457Z,99.27
2022-12-16T20:10:46.936Z,99.11
2022-12-16T20:13:32.311Z,98.99
2022-12-16T20:16:26.317Z,99.55
2022-12-16T20:19:11.780Z,100.00
2022-12-16T20:22:00.692Z,100.00
2022-12-16T20:24:50.130Z,98.79
2022-12-16T20:27:35.651Z,99.83
2022-12-16T20:30:21.253Z,99.97
2022-12-16T20:33:06.629Z,100.00
2022-12-16T20:35:56.138Z,99.78
2022-12-16T20:38:41.678Z,100.00
2022-12-16T20:41:27.355Z,100.00
2022-12-16T20:44:12.649Z,100.00
2022-12-16T20:46:58.307Z,100.00
2022-12-16T20:49:43.978Z,100.00
2022-12-16T20:52:29.575Z,100.00
2022-12-16T20:55:15.994Z,100.00
2022-12-16T20:58:03.384Z,100.00
2022-12-16T21:00:48.945Z,100.00
2022-12-16T21:03:34.384Z,100.00
2022-12-16T21:06:19.796Z,100.00
2022-12-16T21:09:05.317Z,100.00
2022-12-16T21:11:50.789Z,100.00
2022-12-16T21:14:37.101Z,100.00
2022-12-16T21:17:22.471Z,100.00
2022-12-16T21:20:07.931Z,100.00
2022-12-16T21:22:53.461Z,100.00
2022-12-16T21:25:38.857Z,100.00
2022-12-16T21:28:24.337Z,100.00
2022-12-16T21:31:09.758Z,100.00
2022-12-16T21:33:55.383Z,100.00
2022-12-16T21:36:41.058Z,100.00
2022-12-16T21:39:26.534Z,100.00
2022-12-16T21:42:12.100Z,100.00
2022-12-16T21:45:17.354Z,100.00
2022-12-16T21:48:13.291Z,100.00
2022-12-16T21:50:58.878Z,100.00
2022-12-16T21:53:44.760Z,100.00
2022-12-16T21:56:30.697Z,100.00
2022-12-16T21:59:18.582Z,100.00
2022-12-16T22:02:04.657Z,100.00
2022-12-16T22:04:50.332Z,100.00
2022-12-16T22:07:35.756Z,100.00
2022-12-16T22:10:22.758Z,100.00
2022-12-16T22:13:08.351Z,100.00
2022-12-16T22:15:58.110Z,100.00
2022-12-16T22:18:46.406Z,100.00
2022-12-16T22:21:31.884Z,100.00
2022-12-16T22:24:17.938Z,100.00
2022-12-16T22:27:03.361Z,100.00
2022-12-16T22:29:48.939Z,100.00
2022-12-16T22:32:34.385Z,100.00
2022-12-16T22:35:20.058Z,100.00
2022-12-16T22:38:05.430Z,100.00
2022-12-16T22:40:51.002Z,100.00
2022-12-16T22:43:37.735Z,100.00
2022-12-16T22:46:23.363Z,100.00
2022-12-16T22:49:09.562Z,100.00
2022-12-16T22:51:54.866Z,100.00
2022-12-16T22:54:42.291Z,100.00
2022-12-16T22:57:28.047Z,100.00
2022-12-16T23:00:13.379Z,100.00
2022-12-16T23:03:21.135Z,100.00
2022-12-16T23:06:07.222Z,100.00
2022-12-16T23:08:52.508Z,100.00
2022-12-16T23:11:56.427Z,100.00
2022-12-16T23:17:47.633Z,100.00
2022-12-16T23:20:33.280Z,100.00
2022-12-16T23:23:18.726Z,100.00
2022-12-16T23:26:17.644Z,100.00
2022-12-16T23:29:03.028Z,100.00
2022-12-16T23:31:48.638Z,100.00
2022-12-16T23:34:43.899Z,100.00
2022-12-16T23:37:31.341Z,100.00
2022-12-16T23:40:16.770Z,100.00
2022-12-16T23:43:02.210Z,100.00
2022-12-16T23:45:47.414Z,100.00
2022-12-16T23:48:33.161Z,100.00
2022-12-16T23:51:18.658Z,100.00
2022-12-16T23:54:08.875Z,100.00
2022-12-16T23:56:56.398Z,100.00
2022-12-16T23:59:42.011Z,100.00
